sensor_id;sensor_type;location;lat;lon;timestamp;temperature;humidity
17178;DHT22;8704;52.006;4.374;2023-02-15T00:00:07;3.20;1.00
17178;DHT22;8704;52.006;4.374;2023-02-15T00:02:37;3.20;1.00
17178;DHT22;8704;52.006;4.374;2023-02-15T00:05:07;4.20;1.00
17178;DHT22;8704;52.006;4.374;2023-02-15T00:07:35;3.10;1.00
17178;DHT22;8704;52.006;4.374;2023-02-15T00:10:04;3.50;1.00
17178;DHT22;8704;52.006;4.374;2023-02-15T00:12:33;3.10;1.00
17178;DHT22;8704;52.006;4.374;2023-02-15T00:15:01;4.40;1.00
17178;DHT22;8704;52.006;4.374;2023-02-15T00:17:29;4.00;1.00
17178;DHT22;8704;52.006;4.374;2023-02-15T00:19:57;3.10;1.00
17178;DHT22;8704;52.006;4.374;2023-02-15T00:22:27;3.00;1.00
17178;DHT22;8704;52.006;4.374;2023-02-15T00:24:55;3.90;1.00
17178;DHT22;8704;52.006;4.374;2023-02-15T00:27:23;3.00;1.00
17178;DHT22;8704;52.006;4.374;2023-02-15T00:29:51;3.00;1.00
17178;DHT22;8704;52.006;4.374;2023-02-15T00:32:19;2.90;1.00
17178;DHT22;8704;52.006;4.374;2023-02-15T00:34:47;2.90;1.00
17178;DHT22;8704;52.006;4.374;2023-02-15T00:37:16;3.60;1.00
17178;DHT22;8704;52.006;4.374;2023-02-15T00:39:45;3.00;1.00
17178;DHT22;8704;52.006;4.374;2023-02-15T00:42:13;4.20;1.00
17178;DHT22;8704;52.006;4.374;2023-02-15T00:44:41;2.80;1.00
17178;DHT22;8704;52.006;4.374;2023-02-15T00:47:09;2.80;1.00
17178;DHT22;8704;52.006;4.374;2023-02-15T00:49:37;3.30;1.00
17178;DHT22;8704;52.006;4.374;2023-02-15T00:52:05;2.90;1.00
17178;DHT22;8704;52.006;4.374;2023-02-15T00:54:33;2.80;1.00
17178;DHT22;8704;52.006;4.374;2023-02-15T00:57:03;2.80;1.00
17178;DHT22;8704;52.006;4.374;2023-02-15T00:59:31;2.80;1.00
17178;DHT22;8704;52.006;4.374;2023-02-15T01:01:59;2.70;1.00
17178;DHT22;8704;52.006;4.374;2023-02-15T01:04:27;3.60;1.00
17178;DHT22;8704;52.006;4.374;2023-02-15T01:06:55;2.70;1.00
17178;DHT22;8704;52.006;4.374;2023-02-15T01:09:23;2.70;1.00
17178;DHT22;8704;52.006;4.374;2023-02-15T01:11:51;2.70;1.00
17178;DHT22;8704;52.006;4.374;2023-02-15T01:14:22;2.70;1.00
17178;DHT22;8704;52.006;4.374;2023-02-15T01:16:50;2.70;1.00
17178;DHT22;8704;52.006;4.374;2023-02-15T01:19:18;2.60;1.00
17178;DHT22;8704;52.006;4.374;2023-02-15T01:21:46;3.40;1.00
17178;DHT22;8704;52.006;4.374;2023-02-15T01:24:15;2.60;1.00
17178;DHT22;8704;52.006;4.374;2023-02-15T01:26:43;2.60;1.00
17178;DHT22;8704;52.006;4.374;2023-02-15T01:29:11;3.60;1.00
17178;DHT22;8704;52.006;4.374;2023-02-15T01:31:40;3.40;1.00
17178;DHT22;8704;52.006;4.374;2023-02-15T01:34:08;3.30;1.00
17178;DHT22;8704;52.006;4.374;2023-02-15T01:36:36;2.60;1.00
17178;DHT22;8704;52.006;4.374;2023-02-15T01:39:04;2.50;1.00
17178;DHT22;8704;52.006;4.374;2023-02-15T01:41:34;2.50;1.00
17178;DHT22;8704;52.006;4.374;2023-02-15T01:44:03;2.80;1.00
17178;DHT22;8704;52.006;4.374;2023-02-15T01:46:34;2.50;1.00
17178;DHT22;8704;52.006;4.374;2023-02-15T01:49:09;2.50;1.00
17178;DHT22;8704;52.006;4.374;2023-02-15T01:51:41;3.60;1.00
17178;DHT22;8704;52.006;4.374;2023-02-15T01:54:15;2.40;1.00
17178;DHT22;8704;52.006;4.374;2023-02-15T01:56:44;2.40;1.00
17178;DHT22;8704;52.006;4.374;2023-02-15T01:59:16;2.40;1.00
17178;DHT22;8704;52.006;4.374;2023-02-15T02:01:44;2.40;1.00
17178;DHT22;8704;52.006;4.374;2023-02-15T02:04:17;2.30;1.00
17178;DHT22;8704;52.006;4.374;2023-02-15T02:06:48;2.30;1.00
17178;DHT22;8704;52.006;4.374;2023-02-15T02:09:17;2.40;1.00
17178;DHT22;8704;52.006;4.374;2023-02-15T02:11:46;2.30;1.00
17178;DHT22;8704;52.006;4.374;2023-02-15T02:14:15;2.30;1.00
17178;DHT22;8704;52.006;4.374;2023-02-15T02:16:49;2.30;1.00
17178;DHT22;8704;52.006;4.374;2023-02-15T02:19:45;2.30;1.00
17178;DHT22;8704;52.006;4.374;2023-02-15T02:25:59;2.30;1.00
17178;DHT22;8704;52.006;4.374;2023-02-15T02:28:52;2.30;1.00
17178;DHT22;8704;52.006;4.374;2023-02-15T02:31:45;2.30;1.00
17178;DHT22;8704;52.006;4.374;2023-02-15T02:34:26;2.30;1.00
17178;DHT22;8704;52.006;4.374;2023-02-15T02:37:02;3.30;1.00
17178;DHT22;8704;52.006;4.374;2023-02-15T02:39:37;3.70;1.00
17178;DHT22;8704;52.006;4.374;2023-02-15T02:42:12;2.20;1.00
17178;DHT22;8704;52.006;4.374;2023-02-15T02:44:47;2.30;1.00
17178;DHT22;8704;52.006;4.374;2023-02-15T02:47:22;3.00;1.00
17178;DHT22;8704;52.006;4.374;2023-02-15T02:49:59;2.20;1.00
17178;DHT22;8704;52.006;4.374;2023-02-15T02:52:37;2.20;1.00
17178;DHT22;8704;52.006;4.374;2023-02-15T02:55:08;2.10;1.00
17178;DHT22;8704;52.006;4.374;2023-02-15T02:57:42;2.90;1.00
17178;DHT22;8704;52.006;4.374;2023-02-15T03:00:12;2.10;1.00
17178;DHT22;8704;52.006;4.374;2023-02-15T03:02:44;2.10;1.00
17178;DHT22;8704;52.006;4.374;2023-02-15T03:05:18;2.10;1.00
17178;DHT22;8704;52.006;4.374;2023-02-15T03:07:49;2.00;1.00
17178;DHT22;8704;52.006;4.374;2023-02-15T03:10:21;2.10;1.00
17178;DHT22;8704;52.006;4.374;2023-02-15T03:12:50;2.10;1.00
17178;DHT22;8704;52.006;4.374;2023-02-15T03:15:20;2.00;1.00
17178;DHT22;8704;52.006;4.374;2023-02-15T03:17:53;2.00;1.00
17178;DHT22;8704;52.006;4.374;2023-02-15T03:20:29;2.00;1.00
17178;DHT22;8704;52.006;4.374;2023-02-15T03:23:00;2.00;1.00
17178;DHT22;8704;52.006;4.374;2023-02-15T03:25:33;2.00;1.00
17178;DHT22;8704;52.006;4.374;2023-02-15T03:28:05;2.00;1.00
17178;DHT22;8704;52.006;4.374;2023-02-15T03:30:34;2.00;1.00
17178;DHT22;8704;52.006;4.374;2023-02-15T03:33:03;1.90;1.00
17178;DHT22;8704;52.006;4.374;2023-02-15T03:35:36;1.90;1.00
17178;DHT22;8704;52.006;4.374;2023-02-15T03:38:07;2.30;1.00
17178;DHT22;8704;52.006;4.374;2023-02-15T03:40:38;2.00;1.00
17178;DHT22;8704;52.006;4.374;2023-02-15T03:43:31;1.90;1.00
17178;DHT22;8704;52.006;4.374;2023-02-15T03:46:06;1.90;1.00
17178;DHT22;8704;52.006;4.374;2023-02-15T03:48:39;1.90;1.00
17178;DHT22;8704;52.006;4.374;2023-02-15T03:51:14;1.80;1.00
17178;DHT22;8704;52.006;4.374;2023-02-15T03:54:04;1.80;1.00
17178;DHT22;8704;52.006;4.374;2023-02-15T03:56:34;1.80;1.00
17178;DHT22;8704;52.006;4.374;2023-02-15T03:59:03;1.80;1.00
17178;DHT22;8704;52.006;4.374;2023-02-15T04:01:58;1.80;1.00
17178;DHT22;8704;52.006;4.374;2023-02-15T04:04:34;1.80;1.00
17178;DHT22;8704;52.006;4.374;2023-02-15T04:07:06;2.20;1.00
17178;DHT22;8704;52.006;4.374;2023-02-15T04:09:34;1.80;1.00
17178;DHT22;8704;52.006;4.374;2023-02-15T04:12:20;1.80;1.00
17178;DHT22;8704;52.006;4.374;2023-02-15T04:14:48;1.80;1.00
17178;DHT22;8704;52.006;4.374;2023-02-15T04:17:33;1.70;1.00
17178;DHT22;8704;52.006;4.374;2023-02-15T04:20:01;1.80;1.00
17178;DHT22;8704;52.006;4.374;2023-02-15T04:22:48;1.70;1.00
17178;DHT22;8704;52.006;4.374;2023-02-15T04:25:33;1.70;1.00
17178;DHT22;8704;52.006;4.374;2023-02-15T04:28:01;1.80;1.00
17178;DHT22;8704;52.006;4.374;2023-02-15T04:30:30;1.60;1.00
17178;DHT22;8704;52.006;4.374;2023-02-15T04:32:58;1.60;1.00
17178;DHT22;8704;52.006;4.374;2023-02-15T04:35:26;2.40;1.00
17178;DHT22;8704;52.006;4.374;2023-02-15T04:37:55;1.60;1.00
17178;DHT22;8704;52.006;4.374;2023-02-15T04:40:24;1.60;1.00
17178;DHT22;8704;52.006;4.374;2023-02-15T04:42:52;1.80;1.00
17178;DHT22;8704;52.006;4.374;2023-02-15T04:45:20;1.60;1.00
17178;DHT22;8704;52.006;4.374;2023-02-15T04:47:48;1.60;1.00
17178;DHT22;8704;52.006;4.374;2023-02-15T04:50:16;1.80;1.00
17178;DHT22;8704;52.006;4.374;2023-02-15T04:52:44;1.60;1.00
17178;DHT22;8704;52.006;4.374;2023-02-15T04:55:14;1.60;1.00
17178;DHT22;8704;52.006;4.374;2023-02-15T04:57:42;1.50;1.00
17178;DHT22;8704;52.006;4.374;2023-02-15T05:00:11;1.50;1.00
17178;DHT22;8704;52.006;4.374;2023-02-15T05:02:39;1.50;1.00
17178;DHT22;8704;52.006;4.374;2023-02-15T05:05:07;1.60;1.00
17178;DHT22;8704;52.006;4.374;2023-02-15T05:07:39;1.50;1.00
17178;DHT22;8704;52.006;4.374;2023-02-15T05:10:08;1.50;1.00
17178;DHT22;8704;52.006;4.374;2023-02-15T05:12:38;1.60;1.00
17178;DHT22;8704;52.006;4.374;2023-02-15T05:15:06;1.50;1.00
17178;DHT22;8704;52.006;4.374;2023-02-15T05:17:34;1.50;1.00
17178;DHT22;8704;52.006;4.374;2023-02-15T05:20:03;2.20;1.00
17178;DHT22;8704;52.006;4.374;2023-02-15T05:22:32;1.50;1.00
17178;DHT22;8704;52.006;4.374;2023-02-15T05:25:00;1.50;1.00
17178;DHT22;8704;52.006;4.374;2023-02-15T05:27:47;1.40;1.00
17178;DHT22;8704;52.006;4.374;2023-02-15T05:30:32;1.40;1.00
17178;DHT22;8704;52.006;4.374;2023-02-15T05:33:00;1.40;1.00
17178;DHT22;8704;52.006;4.374;2023-02-15T05:35:28;1.40;1.00
17178;DHT22;8704;52.006;4.374;2023-02-15T05:37:56;1.40;1.00
17178;DHT22;8704;52.006;4.374;2023-02-15T05:40:25;1.30;1.00
17178;DHT22;8704;52.006;4.374;2023-02-15T05:42:54;1.30;1.00
17178;DHT22;8704;52.006;4.374;2023-02-15T05:45:24;1.30;1.00
17178;DHT22;8704;52.006;4.374;2023-02-15T05:47:52;1.30;1.00
17178;DHT22;8704;52.006;4.374;2023-02-15T05:50:20;1.30;1.00
17178;DHT22;8704;52.006;4.374;2023-02-15T05:52:48;1.30;1.00
17178;DHT22;8704;52.006;4.374;2023-02-15T05:55:18;1.30;1.00
17178;DHT22;8704;52.006;4.374;2023-02-15T05:57:46;1.30;1.00
17178;DHT22;8704;52.006;4.374;2023-02-15T06:00:17;2.00;1.00
17178;DHT22;8704;52.006;4.374;2023-02-15T06:02:45;1.30;1.00
17178;DHT22;8704;52.006;4.374;2023-02-15T06:05:13;1.30;1.00
17178;DHT22;8704;52.006;4.374;2023-02-15T06:07:42;1.30;1.00
17178;DHT22;8704;52.006;4.374;2023-02-15T06:10:11;1.30;1.00
17178;DHT22;8704;52.006;4.374;2023-02-15T06:12:39;1.30;1.00
17178;DHT22;8704;52.006;4.374;2023-02-15T06:15:08;1.20;1.00
17178;DHT22;8704;52.006;4.374;2023-02-15T06:17:37;1.30;1.00
17178;DHT22;8704;52.006;4.374;2023-02-15T06:20:06;1.30;1.00
17178;DHT22;8704;52.006;4.374;2023-02-15T06:22:35;1.20;1.00
17178;DHT22;8704;52.006;4.374;2023-02-15T06:25:03;1.20;1.00
17178;DHT22;8704;52.006;4.374;2023-02-15T06:27:31;1.20;1.00
17178;DHT22;8704;52.006;4.374;2023-02-15T06:29:59;1.80;1.00
17178;DHT22;8704;52.006;4.374;2023-02-15T06:32:27;1.70;1.00
17178;DHT22;8704;52.006;4.374;2023-02-15T06:34:57;1.20;1.00
17178;DHT22;8704;52.006;4.374;2023-02-15T06:37:25;1.20;1.00
17178;DHT22;8704;52.006;4.374;2023-02-15T06:39:53;1.70;1.00
17178;DHT22;8704;52.006;4.374;2023-02-15T06:42:21;1.20;1.00
17178;DHT22;8704;52.006;4.374;2023-02-15T06:44:49;2.00;1.00
17178;DHT22;8704;52.006;4.374;2023-02-15T06:47:17;1.20;1.00
17178;DHT22;8704;52.006;4.374;2023-02-15T06:49:45;1.20;1.00
17178;DHT22;8704;52.006;4.374;2023-02-15T06:52:14;1.20;1.00
17178;DHT22;8704;52.006;4.374;2023-02-15T06:54:42;1.20;1.00
17178;DHT22;8704;52.006;4.374;2023-02-15T06:57:10;1.80;1.00
17178;DHT22;8704;52.006;4.374;2023-02-15T06:59:38;1.10;1.00
17178;DHT22;8704;52.006;4.374;2023-02-15T07:02:08;1.10;1.00
17178;DHT22;8704;52.006;4.374;2023-02-15T07:04:36;1.30;1.00
17178;DHT22;8704;52.006;4.374;2023-02-15T07:07:07;1.10;1.00
17178;DHT22;8704;52.006;4.374;2023-02-15T07:09:37;1.80;1.00
17178;DHT22;8704;52.006;4.374;2023-02-15T07:12:05;1.80;1.00
17178;DHT22;8704;52.006;4.374;2023-02-15T07:14:51;1.40;1.00
17178;DHT22;8704;52.006;4.374;2023-02-15T07:17:19;1.30;1.00
17178;DHT22;8704;52.006;4.374;2023-02-15T07:20:01;1.20;1.00
17178;DHT22;8704;52.006;4.374;2023-02-15T07:22:29;1.10;1.00
17178;DHT22;8704;52.006;4.374;2023-02-15T07:24:58;1.10;1.00
17178;DHT22;8704;52.006;4.374;2023-02-15T07:27:27;2.50;1.00
17178;DHT22;8704;52.006;4.374;2023-02-15T07:29:55;1.10;1.00
17178;DHT22;8704;52.006;4.374;2023-02-15T07:32:23;1.10;1.00
17178;DHT22;8704;52.006;4.374;2023-02-15T07:34:51;1.20;1.00
17178;DHT22;8704;52.006;4.374;2023-02-15T07:37:19;1.20;1.00
17178;DHT22;8704;52.006;4.374;2023-02-15T07:39:47;1.20;1.00
17178;DHT22;8704;52.006;4.374;2023-02-15T07:42:17;1.50;1.00
17178;DHT22;8704;52.006;4.374;2023-02-15T07:44:46;1.70;1.00
17178;DHT22;8704;52.006;4.374;2023-02-15T07:47:14;1.30;1.00
17178;DHT22;8704;52.006;4.374;2023-02-15T07:49:42;1.30;1.00
17178;DHT22;8704;52.006;4.374;2023-02-15T07:52:10;1.30;1.00
17178;DHT22;8704;52.006;4.374;2023-02-15T07:54:38;1.40;1.00
17178;DHT22;8704;52.006;4.374;2023-02-15T07:57:06;1.40;1.00
17178;DHT22;8704;52.006;4.374;2023-02-15T07:59:36;1.50;1.00
17178;DHT22;8704;52.006;4.374;2023-02-15T08:02:06;1.50;1.00
17178;DHT22;8704;52.006;4.374;2023-02-15T08:04:36;2.40;1.00
17178;DHT22;8704;52.006;4.374;2023-02-15T08:07:04;1.60;1.00
17178;DHT22;8704;52.006;4.374;2023-02-15T08:09:32;1.70;1.00
17178;DHT22;8704;52.006;4.374;2023-02-15T08:12:00;1.90;1.00
17178;DHT22;8704;52.006;4.374;2023-02-15T08:14:28;1.70;1.00
17178;DHT22;8704;52.006;4.374;2023-02-15T08:16:59;1.80;1.00
17178;DHT22;8704;52.006;4.374;2023-02-15T08:19:29;1.90;1.00
17178;DHT22;8704;52.006;4.374;2023-02-15T08:22:00;1.90;1.00
17178;DHT22;8704;52.006;4.374;2023-02-15T08:24:30;2.00;1.00
17178;DHT22;8704;52.006;4.374;2023-02-15T08:26:58;2.10;1.00
17178;DHT22;8704;52.006;4.374;2023-02-15T08:29:33;2.10;1.00
17178;DHT22;8704;52.006;4.374;2023-02-15T08:32:04;2.10;1.00
17178;DHT22;8704;52.006;4.374;2023-02-15T08:34:35;2.20;1.00
17178;DHT22;8704;52.006;4.374;2023-02-15T08:37:04;2.70;4.50
17178;DHT22;8704;52.006;4.374;2023-02-15T08:39:33;2.30;48.40
17178;DHT22;8704;52.006;4.374;2023-02-15T08:42:01;2.60;99.90
17178;DHT22;8704;52.006;4.374;2023-02-15T08:44:29;2.40;99.90
17178;DHT22;8704;52.006;4.374;2023-02-15T08:46:57;2.40;99.90
17178;DHT22;8704;52.006;4.374;2023-02-15T08:49:30;2.50;99.90
17178;DHT22;8704;52.006;4.374;2023-02-15T08:51:59;2.60;99.90
17178;DHT22;8704;52.006;4.374;2023-02-15T08:54:27;2.70;99.90
17178;DHT22;8704;52.006;4.374;2023-02-15T08:56:55;2.80;1.00
17178;DHT22;8704;52.006;4.374;2023-02-15T08:59:23;2.90;1.00
17178;DHT22;8704;52.006;4.374;2023-02-15T09:01:53;2.90;1.00
17178;DHT22;8704;52.006;4.374;2023-02-15T09:04:21;3.00;1.00
17178;DHT22;8704;52.006;4.374;2023-02-15T09:06:51;3.10;99.90
17178;DHT22;8704;52.006;4.374;2023-02-15T09:09:20;3.20;99.90
17178;DHT22;8704;52.006;4.374;2023-02-15T09:11:49;3.20;99.90
17178;DHT22;8704;52.006;4.374;2023-02-15T09:14:25;3.50;99.90
17178;DHT22;8704;52.006;4.374;2023-02-15T09:16:53;3.50;99.90
17178;DHT22;8704;52.006;4.374;2023-02-15T09:19:22;3.60;1.00
17178;DHT22;8704;52.006;4.374;2023-02-15T09:21:52;3.70;1.00
17178;DHT22;8704;52.006;4.374;2023-02-15T09:24:21;3.70;1.00
17178;DHT22;8704;52.006;4.374;2023-02-15T09:26:49;3.80;1.00
17178;DHT22;8704;52.006;4.374;2023-02-15T09:29:19;4.60;1.00
17178;DHT22;8704;52.006;4.374;2023-02-15T09:31:48;3.90;1.00
17178;DHT22;8704;52.006;4.374;2023-02-15T09:34:19;3.90;1.00
17178;DHT22;8704;52.006;4.374;2023-02-15T09:36:48;5.30;1.00
17178;DHT22;8704;52.006;4.374;2023-02-15T09:39:19;4.20;1.00
17178;DHT22;8704;52.006;4.374;2023-02-15T09:45:11;4.40;99.90
17178;DHT22;8704;52.006;4.374;2023-02-15T09:48:05;4.60;99.90
17178;DHT22;8704;52.006;4.374;2023-02-15T09:50:42;4.70;99.90
17178;DHT22;8704;52.006;4.374;2023-02-15T09:53:29;4.70;99.90
17178;DHT22;8704;52.006;4.374;2023-02-15T09:56:09;4.90;99.90
17178;DHT22;8704;52.006;4.374;2023-02-15T09:58:46;5.20;99.90
17178;DHT22;8704;52.006;4.374;2023-02-15T10:01:28;5.00;99.90
17178;DHT22;8704;52.006;4.374;2023-02-15T10:04:10;5.20;99.90
17178;DHT22;8704;52.006;4.374;2023-02-15T10:06:44;5.00;99.90
17178;DHT22;8704;52.006;4.374;2023-02-15T10:09:39;5.10;99.90
17178;DHT22;8704;52.006;4.374;2023-02-15T10:12:37;5.30;99.90
17178;DHT22;8704;52.006;4.374;2023-02-15T10:15:18;5.30;21.40
17178;DHT22;8704;52.006;4.374;2023-02-15T10:18:12;5.40;1.00
17178;DHT22;8704;52.006;4.374;2023-02-15T10:20:52;5.60;1.00
17178;DHT22;8704;52.006;4.374;2023-02-15T10:23:35;5.70;99.90
17178;DHT22;8704;52.006;4.374;2023-02-15T10:26:12;6.50;99.90
17178;DHT22;8704;52.006;4.374;2023-02-15T10:28:48;6.50;1.00
17178;DHT22;8704;52.006;4.374;2023-02-15T10:31:23;6.20;1.00
17178;DHT22;8704;52.006;4.374;2023-02-15T10:34:09;6.70;1.00
17178;DHT22;8704;52.006;4.374;2023-02-15T10:37:01;6.20;1.00
17178;DHT22;8704;52.006;4.374;2023-02-15T10:39:39;6.20;1.00
17178;DHT22;8704;52.006;4.374;2023-02-15T10:42:16;6.30;99.90
17178;DHT22;8704;52.006;4.374;2023-02-15T10:44:59;6.80;1.00
17178;DHT22;8704;52.006;4.374;2023-02-15T10:47:41;6.50;1.00
17178;DHT22;8704;52.006;4.374;2023-02-15T10:50:23;6.50;1.00
17178;DHT22;8704;52.006;4.374;2023-02-15T10:53:09;6.60;1.00
17178;DHT22;8704;52.006;4.374;2023-02-15T10:55:48;6.70;1.00
17178;DHT22;8704;52.006;4.374;2023-02-15T10:58:28;6.90;1.00
17178;DHT22;8704;52.006;4.374;2023-02-15T11:01:05;6.90;1.00
17178;DHT22;8704;52.006;4.374;2023-02-15T11:03:53;7.00;99.90
17178;DHT22;8704;52.006;4.374;2023-02-15T11:06:26;7.00;99.90
17178;DHT22;8704;52.006;4.374;2023-02-15T11:08:57;7.30;99.90
17178;DHT22;8704;52.006;4.374;2023-02-15T11:11:30;7.30;99.80
17178;DHT22;8704;52.006;4.374;2023-02-15T11:14:02;7.30;63.10
17178;DHT22;8704;52.006;4.374;2023-02-15T11:16:37;7.40;1.00
17178;DHT22;8704;52.006;4.374;2023-02-15T11:19:10;7.60;1.00
17178;DHT22;8704;52.006;4.374;2023-02-15T11:21:42;7.90;1.00
17178;DHT22;8704;52.006;4.374;2023-02-15T11:24:12;8.00;1.00
17178;DHT22;8704;52.006;4.374;2023-02-15T11:26:43;8.20;1.00
17178;DHT22;8704;52.006;4.374;2023-02-15T11:29:20;7.90;1.00
17178;DHT22;8704;52.006;4.374;2023-02-15T11:31:53;7.90;1.00
17178;DHT22;8704;52.006;4.374;2023-02-15T11:34:26;8.00;1.00
17178;DHT22;8704;52.006;4.374;2023-02-15T11:36:58;8.80;1.00
17178;DHT22;8704;52.006;4.374;2023-02-15T11:39:28;8.10;1.00
17178;DHT22;8704;52.006;4.374;2023-02-15T11:42:01;8.20;1.00
17178;DHT22;8704;52.006;4.374;2023-02-15T11:44:35;8.40;1.00
17178;DHT22;8704;52.006;4.374;2023-02-15T11:47:09;8.50;1.00
17178;DHT22;8704;52.006;4.374;2023-02-15T11:49:38;8.40;1.00
17178;DHT22;8704;52.006;4.374;2023-02-15T11:52:10;8.50;1.00
17178;DHT22;8704;52.006;4.374;2023-02-15T11:54:42;8.60;1.00
17178;DHT22;8704;52.006;4.374;2023-02-15T11:57:15;8.70;99.90
17178;DHT22;8704;52.006;4.374;2023-02-15T11:59:52;8.80;99.90
17178;DHT22;8704;52.006;4.374;2023-02-15T12:02:23;9.50;99.90
17178;DHT22;8704;52.006;4.374;2023-02-15T12:04:56;9.30;99.90
17178;DHT22;8704;52.006;4.374;2023-02-15T12:07:28;8.90;99.90
17178;DHT22;8704;52.006;4.374;2023-02-15T12:10:03;9.40;99.90
17178;DHT22;8704;52.006;4.374;2023-02-15T12:12:35;9.10;99.90
17178;DHT22;8704;52.006;4.374;2023-02-15T12:15:05;9.20;99.90
17178;DHT22;8704;52.006;4.374;2023-02-15T12:17:38;9.30;99.90
17178;DHT22;8704;52.006;4.374;2023-02-15T12:20:21;9.50;99.90
17178;DHT22;8704;52.006;4.374;2023-02-15T12:22:53;9.60;99.90
17178;DHT22;8704;52.006;4.374;2023-02-15T12:25:24;9.70;99.90
17178;DHT22;8704;52.006;4.374;2023-02-15T12:27:53;9.80;99.90
17178;DHT22;8704;52.006;4.374;2023-02-15T12:30:25;10.20;99.90
17178;DHT22;8704;52.006;4.374;2023-02-15T12:32:58;10.10;99.90
17178;DHT22;8704;52.006;4.374;2023-02-15T12:35:29;10.00;99.90
17178;DHT22;8704;52.006;4.374;2023-02-15T12:38:02;9.90;99.90
17178;DHT22;8704;52.006;4.374;2023-02-15T12:40:32;10.00;99.90
17178;DHT22;8704;52.006;4.374;2023-02-15T12:43:02;10.30;99.90
17178;DHT22;8704;52.006;4.374;2023-02-15T12:45:36;10.10;99.90
17178;DHT22;8704;52.006;4.374;2023-02-15T12:48:17;10.50;99.90
17178;DHT22;8704;52.006;4.374;2023-02-15T12:50:46;10.30;99.90
17178;DHT22;8704;52.006;4.374;2023-02-15T12:53:33;11.00;99.90
17178;DHT22;8704;52.006;4.374;2023-02-15T12:56:03;10.30;99.90
17178;DHT22;8704;52.006;4.374;2023-02-15T12:58:32;10.40;99.90
17178;DHT22;8704;52.006;4.374;2023-02-15T13:01:10;10.50;99.90
17178;DHT22;8704;52.006;4.374;2023-02-15T13:03:58;10.50;99.90
17178;DHT22;8704;52.006;4.374;2023-02-15T13:06:27;10.60;99.90
17178;DHT22;8704;52.006;4.374;2023-02-15T13:08:58;10.60;99.90
17178;DHT22;8704;52.006;4.374;2023-02-15T13:11:33;10.60;99.90
17178;DHT22;8704;52.006;4.374;2023-02-15T13:14:03;10.50;99.90
17178;DHT22;8704;52.006;4.374;2023-02-15T13:16:33;10.60;99.90
17178;DHT22;8704;52.006;4.374;2023-02-15T13:19:08;10.60;99.90
17178;DHT22;8704;52.006;4.374;2023-02-15T13:21:40;10.60;99.90
17178;DHT22;8704;52.006;4.374;2023-02-15T13:24:17;10.60;99.90
17178;DHT22;8704;52.006;4.374;2023-02-15T13:26:47;10.70;99.90
17178;DHT22;8704;52.006;4.374;2023-02-15T13:29:18;11.40;99.90
17178;DHT22;8704;52.006;4.374;2023-02-15T13:31:48;10.90;99.90
17178;DHT22;8704;52.006;4.374;2023-02-15T13:34:22;11.10;99.90
17178;DHT22;8704;52.006;4.374;2023-02-15T13:36:57;11.10;99.90
17178;DHT22;8704;52.006;4.374;2023-02-15T13:39:30;11.40;99.90
17178;DHT22;8704;52.006;4.374;2023-02-15T13:42:11;11.40;99.90
17178;DHT22;8704;52.006;4.374;2023-02-15T13:45:10;11.50;99.90
17178;DHT22;8704;52.006;4.374;2023-02-15T13:47:45;11.70;99.90
17178;DHT22;8704;52.006;4.374;2023-02-15T13:50:37;11.80;99.90
17178;DHT22;8704;52.006;4.374;2023-02-15T13:53:22;11.90;99.90
17178;DHT22;8704;52.006;4.374;2023-02-15T13:55:55;12.00;99.90
17178;DHT22;8704;52.006;4.374;2023-02-15T14:01:29;12.30;99.90
17178;DHT22;8704;52.006;4.374;2023-02-15T14:10:12;12.50;99.90
17178;DHT22;8704;52.006;4.374;2023-02-15T14:12:57;12.70;99.90
17178;DHT22;8704;52.006;4.374;2023-02-15T14:15:35;12.80;99.90
17178;DHT22;8704;52.006;4.374;2023-02-15T14:18:15;12.90;99.90
17178;DHT22;8704;52.006;4.374;2023-02-15T14:20:56;12.90;99.90
17178;DHT22;8704;52.006;4.374;2023-02-15T14:23:38;12.30;99.90
17178;DHT22;8704;52.006;4.374;2023-02-15T14:26:15;12.90;99.90
17178;DHT22;8704;52.006;4.374;2023-02-15T14:28:51;12.80;99.90
17178;DHT22;8704;52.006;4.374;2023-02-15T14:31:27;12.90;99.90
17178;DHT22;8704;52.006;4.374;2023-02-15T14:33:57;12.80;99.90
17178;DHT22;8704;52.006;4.374;2023-02-15T14:36:27;12.70;99.90
17178;DHT22;8704;52.006;4.374;2023-02-15T14:39:06;12.80;99.90
17178;DHT22;8704;52.006;4.374;2023-02-15T14:42:07;12.60;99.90
17178;DHT22;8704;52.006;4.374;2023-02-15T14:44:39;12.60;99.90
17178;DHT22;8704;52.006;4.374;2023-02-15T14:47:11;12.60;99.90
17178;DHT22;8704;52.006;4.374;2023-02-15T14:49:41;12.70;99.90
17178;DHT22;8704;52.006;4.374;2023-02-15T14:52:10;12.60;99.90
17178;DHT22;8704;52.006;4.374;2023-02-15T14:54:59;12.70;99.90
17178;DHT22;8704;52.006;4.374;2023-02-15T14:57:30;12.60;99.90
17178;DHT22;8704;52.006;4.374;2023-02-15T15:02:52;12.60;99.90
17178;DHT22;8704;52.006;4.374;2023-02-15T15:05:23;12.40;99.90
17178;DHT22;8704;52.006;4.374;2023-02-15T15:07:54;12.20;99.90
17178;DHT22;8704;52.006;4.374;2023-02-15T15:10:37;12.10;99.90
17178;DHT22;8704;52.006;4.374;2023-02-15T15:13:34;12.30;99.90
17178;DHT22;8704;52.006;4.374;2023-02-15T15:19:09;12.20;99.90
17178;DHT22;8704;52.006;4.374;2023-02-15T15:21:56;12.10;99.90
17178;DHT22;8704;52.006;4.374;2023-02-15T15:24:49;12.10;99.90
17178;DHT22;8704;52.006;4.374;2023-02-15T15:27:47;12.20;1.00
17178;DHT22;8704;52.006;4.374;2023-02-15T15:39:55;11.80;99.90
17178;DHT22;8704;52.006;4.374;2023-02-15T15:42:32;11.80;99.90
17178;DHT22;8704;52.006;4.374;2023-02-15T15:48:22;11.60;99.90
17178;DHT22;8704;52.006;4.374;2023-02-15T15:50:57;11.60;1.00
17178;DHT22;8704;52.006;4.374;2023-02-15T15:53:28;11.50;99.90
17178;DHT22;8704;52.006;4.374;2023-02-15T15:56:00;11.50;99.90
17178;DHT22;8704;52.006;4.374;2023-02-15T15:58:30;11.50;99.90
17178;DHT22;8704;52.006;4.374;2023-02-15T16:01:02;11.40;99.90
17178;DHT22;8704;52.006;4.374;2023-02-15T16:03:33;11.40;99.90
17178;DHT22;8704;52.006;4.374;2023-02-15T16:06:02;11.30;99.90
17178;DHT22;8704;52.006;4.374;2023-02-15T16:08:33;11.20;99.90
17178;DHT22;8704;52.006;4.374;2023-02-15T16:11:10;11.20;99.90
17178;DHT22;8704;52.006;4.374;2023-02-15T16:13:40;11.20;99.90
17178;DHT22;8704;52.006;4.374;2023-02-15T16:16:08;11.10;99.90
17178;DHT22;8704;52.006;4.374;2023-02-15T16:18:38;11.00;99.90
17178;DHT22;8704;52.006;4.374;2023-02-15T16:21:16;11.00;1.00
17178;DHT22;8704;52.006;4.374;2023-02-15T16:24:10;10.90;99.90
17178;DHT22;8704;52.006;4.374;2023-02-15T16:26:55;10.70;1.00
17178;DHT22;8704;52.006;4.374;2023-02-15T16:29:28;10.70;99.90
17178;DHT22;8704;52.006;4.374;2023-02-15T16:32:01;10.70;99.90
17178;DHT22;8704;52.006;4.374;2023-02-15T16:34:32;10.60;99.90
17178;DHT22;8704;52.006;4.374;2023-02-15T16:37:13;10.50;99.90
17178;DHT22;8704;52.006;4.374;2023-02-15T16:39:42;10.40;99.90
17178;DHT22;8704;52.006;4.374;2023-02-15T16:42:11;10.30;99.90
17178;DHT22;8704;52.006;4.374;2023-02-15T16:44:40;10.30;99.90
17178;DHT22;8704;52.006;4.374;2023-02-15T16:47:15;10.30;1.00
17178;DHT22;8704;52.006;4.374;2023-02-15T16:49:47;10.30;99.90
17178;DHT22;8704;52.006;4.374;2023-02-15T16:52:20;10.20;99.90
17178;DHT22;8704;52.006;4.374;2023-02-15T16:54:53;10.10;99.90
17178;DHT22;8704;52.006;4.374;2023-02-15T16:57:25;10.00;99.90
17178;DHT22;8704;52.006;4.374;2023-02-15T16:59:58;9.90;99.90
17178;DHT22;8704;52.006;4.374;2023-02-15T17:02:32;9.90;1.00
17178;DHT22;8704;52.006;4.374;2023-02-15T17:05:22;9.80;99.90
17178;DHT22;8704;52.006;4.374;2023-02-15T17:08:05;9.80;99.90
17178;DHT22;8704;52.006;4.374;2023-02-15T17:10:36;9.70;99.90
17178;DHT22;8704;52.006;4.374;2023-02-15T17:13:10;9.70;99.90
17178;DHT22;8704;52.006;4.374;2023-02-15T17:15:41;9.60;99.90
17178;DHT22;8704;52.006;4.374;2023-02-15T17:18:15;9.40;99.90